Lake Saint Louis, Missouri
Current Conditions -  °F | °C
As of 11:54 AM on Thursday 29 Jan 2015 (Local Time) from KSUS Reporting Station
Overcast Overcast  
Wind Chill: 34°   Ceiling: 3100
Heat Index: 42°   Visibility: 10mi
Dew Point: 29°   Wind: 17mph
Humidity: 60%   Direction: 300°WNW
Pressure: 30.17"   Gusts: 26mph
Location:  38.8°N, 90.79°W
Report Text: KSUS 291754Z 30015G23KT 10SM BKN031 OVC041 06/M02 A3017 RMK AO2 PK WND 29027/1726 SLP218 T00561017 10078 20044 51029
Loading
Personal Weather Stations






























Interactive Weather Map New forecast layout! Learn more

10-Day Weather Forecast

Advertisements
Track Severe Weather on mobile